createdAt,value
2023-02-15T00:00:30.215Z,4.18
2023-02-15T00:01:30.179Z,4.26
2023-02-15T00:02:30.161Z,4.26
2023-02-15T00:03:30.147Z,4.28
2023-02-15T00:04:30.141Z,4.41
2023-02-15T00:05:30.126Z,4.46
2023-02-15T00:06:30.116Z,4.36
2023-02-15T00:07:30.120Z,4.42
2023-02-15T00:08:30.101Z,4.39
2023-02-15T00:09:30.091Z,4.38
2023-02-15T00:10:30.082Z,4.26
2023-02-15T00:11:30.062Z,4.43
2023-02-15T00:12:30.054Z,4.36
2023-02-15T00:13:30.039Z,4.48
2023-02-15T00:14:30.029Z,4.59
2023-02-15T00:15:30.031Z,4.66
2023-02-15T00:16:30.017Z,4.72
2023-02-15T00:17:30.015Z,4.41
2023-02-15T00:18:29.989Z,4.36
2023-02-15T00:19:29.976Z,4.35
2023-02-15T00:20:29.972Z,4.38
2023-02-15T00:21:29.963Z,4.42
2023-02-15T00:22:29.969Z,4.38
2023-02-15T00:23:29.933Z,4.31
2023-02-15T00:24:29.925Z,4.39
2023-02-15T00:25:29.912Z,4.39
2023-02-15T00:26:29.898Z,4.26
2023-02-15T00:27:29.900Z,3.99
2023-02-15T00:28:29.874Z,3.82
2023-02-15T00:29:29.868Z,3.81
2023-02-15T00:30:29.954Z,3.90
2023-02-15T00:31:29.884Z,4.00
2023-02-15T00:32:29.841Z,4.16
2023-02-15T00:33:29.830Z,4.24
2023-02-15T00:34:29.822Z,4.13
2023-02-15T00:35:29.801Z,4.10
2023-02-15T00:36:29.795Z,3.94
2023-02-15T00:37:29.787Z,3.74
2023-02-15T00:38:29.781Z,3.72
2023-02-15T00:39:29.767Z,3.76
2023-02-15T00:40:29.750Z,3.76
2023-02-15T00:41:29.738Z,3.87
2023-02-15T00:42:29.730Z,3.99
2023-02-15T00:43:29.720Z,4.05
2023-02-15T00:44:29.708Z,4.00
2023-02-15T00:45:29.696Z,4.05
2023-02-15T00:46:29.687Z,4.21
2023-02-15T00:47:29.679Z,4.21
2023-02-15T00:48:29.673Z,4.20
2023-02-15T00:49:29.654Z,4.26
2023-02-15T00:50:29.647Z,4.27
2023-02-15T00:51:29.641Z,4.23
2023-02-15T00:52:29.628Z,4.00
2023-02-15T00:53:29.621Z,4.10
2023-02-15T00:54:29.606Z,4.21
2023-02-15T00:55:29.585Z,4.24
2023-02-15T00:56:29.585Z,4.21
2023-02-15T00:57:29.580Z,4.23
2023-02-15T00:58:29.558Z,4.27
2023-02-15T00:59:29.544Z,4.16
2023-02-15T01:00:29.542Z,4.16
2023-02-15T01:01:29.563Z,3.96
2023-02-15T01:02:29.518Z,4.02
2023-02-15T01:03:29.515Z,4.13
2023-02-15T01:04:29.567Z,4.10
2023-02-15T01:05:29.543Z,4.12
2023-02-15T01:06:29.476Z,3.98
2023-02-15T01:07:29.473Z,4.00
2023-02-15T01:08:29.446Z,4.12
2023-02-15T01:09:29.440Z,4.23
2023-02-15T01:10:29.434Z,4.24
2023-02-15T01:11:29.426Z,4.21
2023-02-15T01:12:29.412Z,4.31
2023-02-15T01:13:29.404Z,4.20
2023-02-15T01:14:29.387Z,3.88
2023-02-15T01:15:29.381Z,3.99
2023-02-15T01:16:29.482Z,3.98
2023-02-15T01:17:29.360Z,4.20
2023-02-15T01:18:29.345Z,4.13
2023-02-15T01:19:29.343Z,4.12
2023-02-15T01:20:29.333Z,3.92
2023-02-15T01:21:29.328Z,3.99
2023-02-15T01:22:29.314Z,3.96
2023-02-15T01:23:29.299Z,3.88
2023-02-15T01:24:29.287Z,3.98
2023-02-15T01:25:29.269Z,3.99
2023-02-15T01:26:29.258Z,3.99
2023-02-15T01:27:29.240Z,4.02
2023-02-15T01:28:29.240Z,4.16
2023-02-15T01:29:29.224Z,4.18
2023-02-15T01:30:29.226Z,4.18
2023-02-15T01:31:29.277Z,4.27
2023-02-15T01:32:29.200Z,4.24
2023-02-15T01:33:29.185Z,4.00
2023-02-15T01:34:29.179Z,3.99
2023-02-15T01:35:29.166Z,4.06
2023-02-15T01:36:29.159Z,4.03
2023-02-15T01:37:29.145Z,4.02
2023-02-15T01:38:29.134Z,3.99
2023-02-15T01:39:29.120Z,4.06
2023-02-15T01:40:29.114Z,4.02
2023-02-15T01:41:29.099Z,4.05
2023-02-15T01:42:29.080Z,4.03
2023-02-15T01:43:29.077Z,3.98
2023-02-15T01:44:29.080Z,3.90
2023-02-15T01:45:29.073Z,3.81
2023-02-15T01:46:29.114Z,3.72
2023-02-15T01:47:29.063Z,3.91
2023-02-15T01:48:29.043Z,3.85
2023-02-15T01:49:29.012Z,3.82
2023-02-15T01:50:28.993Z,3.92
2023-02-15T01:51:28.980Z,3.90
2023-02-15T01:52:28.968Z,3.80
2023-02-15T01:53:28.965Z,3.76
2023-02-15T01:54:28.980Z,3.85
2023-02-15T01:55:28.942Z,3.87
2023-02-15T01:56:28.925Z,3.92
2023-02-15T01:57:28.916Z,3.96
2023-02-15T01:58:28.906Z,3.96
2023-02-15T01:59:28.907Z,3.99
2023-02-15T02:00:28.880Z,4.02
2023-02-15T02:01:28.886Z,3.99
2023-02-15T02:02:28.918Z,3.90
2023-02-15T02:03:28.845Z,3.88
2023-02-15T02:04:28.840Z,3.88
2023-02-15T02:05:28.829Z,3.82
2023-02-15T02:06:28.816Z,3.87
2023-02-15T02:07:28.819Z,3.92
2023-02-15T02:08:28.797Z,3.64
2023-02-15T02:09:28.785Z,3.49
2023-02-15T02:10:28.771Z,3.45
2023-02-15T02:11:28.760Z,3.67
2023-02-15T02:12:28.762Z,3.66
2023-02-15T02:13:28.745Z,3.70
2023-02-15T02:14:28.729Z,3.48
2023-02-15T02:15:28.720Z,3.63
2023-02-15T02:16:28.708Z,3.73
2023-02-15T02:17:28.695Z,3.66
2023-02-15T02:18:28.686Z,3.62
2023-02-15T02:19:28.671Z,3.69
2023-02-15T02:20:28.680Z,3.69
2023-02-15T02:21:28.657Z,3.80
2023-02-15T02:22:28.629Z,3.73
2023-02-15T02:23:28.629Z,3.80
2023-02-15T02:24:28.616Z,3.73
2023-02-15T02:25:28.612Z,3.70
2023-02-15T02:26:28.598Z,3.69
2023-02-15T02:27:28.582Z,3.78
2023-02-15T02:28:28.576Z,3.80
2023-02-15T02:29:28.550Z,3.54
2023-02-15T02:30:28.624Z,3.62
2023-02-15T02:31:28.640Z,3.56
2023-02-15T02:32:28.522Z,3.45
2023-02-15T02:33:28.514Z,3.54
2023-02-15T02:34:28.524Z,3.44
2023-02-15T02:35:28.503Z,3.49
2023-02-15T02:36:28.492Z,3.44
2023-02-15T02:37:28.468Z,3.49
2023-02-15T02:38:28.466Z,3.59
2023-02-15T02:39:28.448Z,3.66
2023-02-15T02:40:28.439Z,3.76
2023-02-15T02:41:28.420Z,3.48
2023-02-15T02:42:28.417Z,3.54
2023-02-15T02:43:28.415Z,3.59
2023-02-15T02:44:28.388Z,3.55
2023-02-15T02:45:28.381Z,3.67
2023-02-15T02:46:28.425Z,3.72
2023-02-15T02:47:28.364Z,3.63
2023-02-15T02:48:28.358Z,3.51
2023-02-15T02:49:28.335Z,3.49
2023-02-15T02:50:28.336Z,3.70
2023-02-15T02:51:28.318Z,3.66
2023-02-15T02:52:28.298Z,3.52
2023-02-15T02:53:28.287Z,3.42
2023-02-15T02:54:28.295Z,3.29
2023-02-15T02:55:28.284Z,3.32
2023-02-15T02:56:28.254Z,3.44
2023-02-15T02:57:28.240Z,3.48
2023-02-15T02:58:28.233Z,3.49
2023-02-15T02:59:28.231Z,3.51
2023-02-15T03:00:28.232Z,3.49
2023-02-15T03:01:28.272Z,3.27
2023-02-15T03:02:28.225Z,3.22
2023-02-15T03:03:28.184Z,3.04
2023-02-15T03:04:28.169Z,3.22
2023-02-15T03:05:28.156Z,3.08
2023-02-15T03:06:28.162Z,3.05
2023-02-15T03:07:28.150Z,3.18
2023-02-15T03:08:28.128Z,3.17
2023-02-15T03:09:28.114Z,3.33
2023-02-15T03:10:28.111Z,3.45
2023-02-15T03:11:28.100Z,3.36
2023-02-15T03:12:28.106Z,3.55
2023-02-15T03:13:28.072Z,3.48
2023-02-15T03:14:28.060Z,3.44
2023-02-15T03:15:28.046Z,3.18
2023-02-15T03:16:28.128Z,3.22
2023-02-15T03:17:28.021Z,3.07
2023-02-15T03:18:28.018Z,3.07
2023-02-15T03:19:28.003Z,3.20
2023-02-15T03:20:27.985Z,3.11
2023-02-15T03:21:27.977Z,3.22
2023-02-15T03:22:27.971Z,3.36
2023-02-15T03:23:27.958Z,3.37
2023-02-15T03:24:27.953Z,3.42
2023-02-15T03:25:27.948Z,3.41
2023-02-15T03:26:27.922Z,3.49
2023-02-15T03:27:27.911Z,3.48
2023-02-15T03:28:27.903Z,3.52
2023-02-15T03:29:27.899Z,2.99
2023-02-15T03:30:27.932Z,3.00
2023-02-15T03:31:27.994Z,2.99
2023-02-15T03:32:27.857Z,3.02
2023-02-15T03:33:27.844Z,3.04
2023-02-15T03:34:27.832Z,2.97
2023-02-15T03:35:27.833Z,2.99
2023-02-15T03:36:27.827Z,3.08
2023-02-15T03:37:27.822Z,3.23
2023-02-15T03:38:27.790Z,3.23
2023-02-15T03:39:27.780Z,3.29
2023-02-15T03:40:27.762Z,3.09
2023-02-15T03:41:27.761Z,3.11
2023-02-15T03:42:27.746Z,3.20
2023-02-15T03:43:27.737Z,3.12
2023-02-15T03:44:27.722Z,3.05
2023-02-15T03:45:27.713Z,3.11
2023-02-15T03:46:27.767Z,3.07
2023-02-15T03:47:27.696Z,3.05
2023-02-15T03:48:27.676Z,3.12
2023-02-15T03:49:27.670Z,3.20
2023-02-15T03:50:27.660Z,3.29
2023-02-15T03:51:27.654Z,3.30
2023-02-15T03:52:27.637Z,3.33
2023-02-15T03:53:27.622Z,3.42
2023-02-15T03:54:27.611Z,3.51
2023-02-15T03:55:27.599Z,3.48
2023-02-15T03:56:27.588Z,3.41
2023-02-15T03:57:27.574Z,3.29
2023-02-15T03:58:27.565Z,3.20
2023-02-15T03:59:27.569Z,3.22
2023-02-15T04:00:27.542Z,3.22
2023-02-15T04:01:27.551Z,3.32
2023-02-15T04:02:27.518Z,3.29
2023-02-15T04:03:27.514Z,3.37
2023-02-15T04:04:27.488Z,3.15
2023-02-15T04:05:27.482Z,3.23
2023-02-15T04:06:27.480Z,3.35
2023-02-15T04:07:27.454Z,3.15
2023-02-15T04:08:27.446Z,3.15
2023-02-15T04:09:27.434Z,3.20
2023-02-15T04:10:27.439Z,3.08
2023-02-15T04:11:27.412Z,2.90
2023-02-15T04:12:27.404Z,3.05
2023-02-15T04:13:27.396Z,3.17
2023-02-15T04:14:27.381Z,3.07
2023-02-15T04:15:27.360Z,3.02
2023-02-15T04:16:29.287Z,3.22
2023-02-15T04:17:27.346Z,3.22
2023-02-15T04:18:27.341Z,3.26
2023-02-15T04:19:27.324Z,3.25
2023-02-15T04:20:27.304Z,3.29
2023-02-15T04:21:27.303Z,3.20
2023-02-15T04:22:27.286Z,3.23
2023-02-15T04:23:27.278Z,3.30
2023-02-15T04:24:27.261Z,3.37
2023-02-15T04:25:27.258Z,3.35
2023-02-15T04:26:27.245Z,3.44
2023-02-15T04:27:27.237Z,3.35
2023-02-15T04:28:27.214Z,3.45
2023-02-15T04:29:27.203Z,3.49
2023-02-15T04:30:27.211Z,3.29
2023-02-15T04:31:27.260Z,3.22
2023-02-15T04:32:27.162Z,3.11
2023-02-15T04:33:27.155Z,3.18
2023-02-15T04:34:27.140Z,3.26
2023-02-15T04:35:27.134Z,3.12
2023-02-15T04:36:27.125Z,3.26
2023-02-15T04:37:27.123Z,3.20
2023-02-15T04:38:27.097Z,3.22
2023-02-15T04:39:27.090Z,3.15
2023-02-15T04:40:27.074Z,3.25
2023-02-15T04:41:27.062Z,3.23
2023-02-15T04:42:27.050Z,3.37
2023-02-15T04:43:27.031Z,3.44
2023-02-15T04:44:27.039Z,3.35
2023-02-15T04:45:27.017Z,3.44
2023-02-15T04:46:27.010Z,3.35
2023-02-15T04:47:26.992Z,3.36
2023-02-15T04:48:26.980Z,3.29
2023-02-15T04:49:26.979Z,3.41
2023-02-15T04:50:26.961Z,3.15
2023-02-15T04:51:26.945Z,3.05
2023-02-15T04:52:26.944Z,2.89
2023-02-15T04:53:26.921Z,2.84
2023-02-15T04:54:26.918Z,2.90
2023-02-15T04:55:26.899Z,2.90
2023-02-15T04:56:26.905Z,2.86
2023-02-15T04:57:26.881Z,3.02
2023-02-15T04:58:26.863Z,3.09
2023-02-15T04:59:26.855Z,3.11
2023-02-15T05:00:26.853Z,2.99
2023-02-15T05:01:26.852Z,3.09
2023-02-15T05:02:26.817Z,3.11
2023-02-15T05:03:26.807Z,2.87
2023-02-15T05:04:26.804Z,2.99
2023-02-15T05:05:26.785Z,3.05
2023-02-15T05:06:26.766Z,3.17
2023-02-15T05:07:26.759Z,2.97
2023-02-15T05:08:26.753Z,3.00
2023-02-15T05:09:26.749Z,3.00
2023-02-15T05:10:26.727Z,3.00
2023-02-15T05:11:26.716Z,3.02
2023-02-15T05:12:26.711Z,3.18
2023-02-15T05:13:26.690Z,3.17
2023-02-15T05:14:26.688Z,3.20
2023-02-15T05:15:26.673Z,3.07
2023-02-15T05:16:26.727Z,3.12
2023-02-15T05:17:26.649Z,3.22
2023-02-15T05:18:26.641Z,3.18
2023-02-15T05:19:26.625Z,3.11
2023-02-15T05:20:26.616Z,3.00
2023-02-15T05:21:26.596Z,3.02
2023-02-15T05:22:26.595Z,3.00
2023-02-15T05:23:26.584Z,3.04
2023-02-15T05:24:26.565Z,2.90
2023-02-15T05:25:26.561Z,3.07
2023-02-15T05:26:26.543Z,3.08
2023-02-15T05:27:26.550Z,3.00
2023-02-15T05:28:26.520Z,3.08
2023-02-15T05:29:26.512Z,3.09
2023-02-15T05:30:26.638Z,3.09
2023-02-15T05:31:26.886Z,3.18
2023-02-15T05:32:26.602Z,3.04
2023-02-15T05:33:26.466Z,3.26
2023-02-15T05:34:26.456Z,3.18
2023-02-15T05:35:26.448Z,3.11
2023-02-15T05:36:26.435Z,3.08
2023-02-15T05:37:26.432Z,3.08
2023-02-15T05:38:26.414Z,2.94
2023-02-15T05:39:26.396Z,2.91
2023-02-15T05:40:26.385Z,2.97
2023-02-15T05:41:26.379Z,3.05
2023-02-15T05:42:26.388Z,3.07
2023-02-15T05:43:26.357Z,2.82
2023-02-15T05:44:26.339Z,2.66
2023-02-15T05:45:26.327Z,2.69
2023-02-15T05:46:26.433Z,2.68
2023-02-15T05:47:26.310Z,2.73
2023-02-15T05:48:26.308Z,2.86
2023-02-15T05:49:26.287Z,2.87
2023-02-15T05:50:26.269Z,2.91
2023-02-15T05:51:26.263Z,2.82
2023-02-15T05:52:26.248Z,2.73
2023-02-15T05:53:26.235Z,2.68
2023-02-15T05:54:26.221Z,2.81
2023-02-15T05:55:26.223Z,2.73
2023-02-15T05:56:26.204Z,2.73
2023-02-15T05:57:26.200Z,2.76
2023-02-15T05:58:26.180Z,2.86
2023-02-15T05:59:26.182Z,2.86
2023-02-15T06:00:26.164Z,2.82
2023-02-15T06:01:26.142Z,2.96
2023-02-15T06:02:26.185Z,2.94
2023-02-15T06:03:26.170Z,2.84
2023-02-15T06:04:26.110Z,2.91
2023-02-15T06:05:26.096Z,2.87
2023-02-15T06:06:26.083Z,2.90
2023-02-15T06:07:26.080Z,3.02
2023-02-15T06:08:26.061Z,3.02
2023-02-15T06:09:26.055Z,2.86
2023-02-15T06:10:26.058Z,2.90
2023-02-15T06:11:26.027Z,2.84
2023-02-15T06:12:26.014Z,2.86
2023-02-15T06:13:26.001Z,2.79
2023-02-15T06:14:26.009Z,2.90
2023-02-15T06:15:26.026Z,2.86
2023-02-15T06:16:25.970Z,2.76
2023-02-15T06:17:25.955Z,2.76
2023-02-15T06:18:25.939Z,2.82
2023-02-15T06:19:25.934Z,2.65
2023-02-15T06:20:25.920Z,2.75
2023-02-15T06:21:25.914Z,2.65
2023-02-15T06:22:25.892Z,2.78
2023-02-15T06:23:25.882Z,2.82
2023-02-15T06:24:25.868Z,2.84
2023-02-15T06:25:25.862Z,2.89
2023-02-15T06:26:25.855Z,2.87
2023-02-15T06:27:25.841Z,2.91
2023-02-15T06:28:25.840Z,2.99
2023-02-15T06:29:25.814Z,2.86
2023-02-15T06:30:25.858Z,2.90
2023-02-15T06:31:25.887Z,2.86
2023-02-15T06:32:25.773Z,2.87
2023-02-15T06:33:25.761Z,2.97
2023-02-15T06:34:25.748Z,2.96
2023-02-15T06:35:25.736Z,3.02
2023-02-15T06:36:25.727Z,3.00
2023-02-15T06:37:25.713Z,3.00
2023-02-15T06:38:25.701Z,3.02
2023-02-15T06:39:25.690Z,2.97
2023-02-15T06:40:25.673Z,2.90
2023-02-15T06:41:25.665Z,2.89
2023-02-15T06:42:25.656Z,2.91
2023-02-15T06:43:25.649Z,2.94
2023-02-15T06:44:25.635Z,2.99
2023-02-15T06:45:25.624Z,3.04
2023-02-15T06:46:25.616Z,3.08
2023-02-15T06:47:25.591Z,3.08
2023-02-15T06:48:25.579Z,3.04
2023-02-15T06:49:25.573Z,3.07
2023-02-15T06:50:25.556Z,3.04
2023-02-15T06:51:25.550Z,3.09
2023-02-15T06:52:25.531Z,3.12
2023-02-15T06:53:25.525Z,3.05
2023-02-15T06:54:25.510Z,2.91
2023-02-15T06:55:25.502Z,3.00
2023-02-15T06:56:25.489Z,3.09
2023-02-15T06:57:25.480Z,2.89
2023-02-15T06:58:25.457Z,2.84
2023-02-15T06:59:25.453Z,2.90
2023-02-15T07:00:25.437Z,2.94
2023-02-15T07:01:25.443Z,2.89
2023-02-15T07:02:25.412Z,2.97
2023-02-15T07:03:25.407Z,2.96
2023-02-15T07:04:25.411Z,2.86
2023-02-15T07:05:25.384Z,2.93
2023-02-15T07:06:25.360Z,2.87
2023-02-15T07:07:25.352Z,2.91
2023-02-15T07:08:25.361Z,2.87
2023-02-15T07:09:25.327Z,3.05
2023-02-15T07:10:25.315Z,2.97
2023-02-15T07:11:25.300Z,2.94
2023-02-15T07:12:25.284Z,2.97
2023-02-15T07:13:25.276Z,3.00
2023-02-15T07:14:26.377Z,3.04
2023-02-15T07:15:25.258Z,2.99
2023-02-15T07:16:25.344Z,2.96
2023-02-15T07:17:35.613Z,3.02
2023-02-15T07:18:25.225Z,3.14
2023-02-15T07:19:25.215Z,2.99
2023-02-15T07:20:25.194Z,3.17
2023-02-15T07:21:25.187Z,2.99
2023-02-15T07:22:25.175Z,2.94
2023-02-15T07:23:25.161Z,2.90
2023-02-15T07:24:25.158Z,3.05
2023-02-15T07:25:25.150Z,3.05
2023-02-15T07:26:25.116Z,3.04
2023-02-15T07:27:25.108Z,2.91
2023-02-15T07:28:25.103Z,2.91
2023-02-15T07:29:25.082Z,2.87
2023-02-15T07:30:25.127Z,2.91
2023-02-15T07:31:25.061Z,2.90
2023-02-15T07:32:25.073Z,2.99
2023-02-15T07:33:25.040Z,3.02
2023-02-15T07:34:25.016Z,2.96
2023-02-15T07:35:25.020Z,2.87
2023-02-15T07:36:24.999Z,2.91
2023-02-15T07:37:24.987Z,2.94
2023-02-15T07:38:24.976Z,3.00
2023-02-15T07:39:24.958Z,3.02
2023-02-15T07:40:24.966Z,2.90
2023-02-15T07:41:24.943Z,3.08
2023-02-15T07:42:24.924Z,3.04
2023-02-15T07:43:24.921Z,3.02
2023-02-15T07:44:24.909Z,3.04
2023-02-15T07:45:24.894Z,2.94
2023-02-15T07:46:24.902Z,2.97
2023-02-15T07:47:24.872Z,2.99
2023-02-15T07:48:25.059Z,2.99
2023-02-15T07:49:24.846Z,3.05
2023-02-15T07:50:24.835Z,3.14
2023-02-15T07:51:24.818Z,3.17
2023-02-15T07:52:24.809Z,3.08
2023-02-15T07:53:24.797Z,3.18
2023-02-15T07:54:24.793Z,3.09
2023-02-15T07:55:24.783Z,3.17
2023-02-15T07:56:24.768Z,3.25
2023-02-15T07:57:24.754Z,3.32
2023-02-15T07:58:24.732Z,3.37
2023-02-15T07:59:24.727Z,3.44
2023-02-15T08:00:24.716Z,3.27
2023-02-15T08:01:24.705Z,3.25
2023-02-15T08:02:24.698Z,3.37
2023-02-15T08:03:24.724Z,3.37
2023-02-15T08:04:24.682Z,3.45
2023-02-15T08:05:24.647Z,3.41
2023-02-15T08:06:24.646Z,3.42
2023-02-15T08:07:24.631Z,3.36
2023-02-15T08:08:24.627Z,3.41
2023-02-15T08:09:24.606Z,3.41
2023-02-15T08:10:24.596Z,3.35
2023-02-15T08:11:24.586Z,3.45
2023-02-15T08:12:24.573Z,3.46
2023-02-15T08:13:24.566Z,3.46
2023-02-15T08:14:24.560Z,3.62
2023-02-15T08:15:24.540Z,3.67
2023-02-15T08:16:24.577Z,3.66
2023-02-15T08:17:24.518Z,3.72
2023-02-15T08:18:24.507Z,3.72
2023-02-15T08:19:24.523Z,3.74
2023-02-15T08:20:24.481Z,3.82
2023-02-15T08:21:25.036Z,3.81
2023-02-15T08:22:24.456Z,3.78
2023-02-15T08:23:24.448Z,3.84
2023-02-15T08:24:24.453Z,3.91
2023-02-15T08:25:24.427Z,3.91
2023-02-15T08:26:24.414Z,3.88
2023-02-15T08:27:24.404Z,3.96
2023-02-15T08:28:24.396Z,3.87
2023-02-15T08:29:24.385Z,3.85
2023-02-15T08:30:24.495Z,3.92
2023-02-15T08:31:24.511Z,4.03
2023-02-15T08:32:24.351Z,3.98
2023-02-15T08:33:24.334Z,4.02
2023-02-15T08:34:24.321Z,3.99
2023-02-15T08:35:24.328Z,4.02
2023-02-15T08:36:24.335Z,4.08
2023-02-15T08:37:24.314Z,4.00
2023-02-15T08:38:24.286Z,4.03
2023-02-15T08:39:24.268Z,4.13
2023-02-15T08:40:24.253Z,4.18
2023-02-15T08:41:24.247Z,4.20
2023-02-15T08:42:24.241Z,4.21
2023-02-15T08:43:24.221Z,4.24
2023-02-15T08:44:24.212Z,4.12
2023-02-15T08:45:24.200Z,4.21
2023-02-15T08:46:24.188Z,4.23
2023-02-15T08:47:24.178Z,4.26
2023-02-15T08:48:24.166Z,4.27
2023-02-15T08:49:24.152Z,4.20
2023-02-15T08:50:24.155Z,4.34
2023-02-15T08:51:24.131Z,4.39
2023-02-15T08:52:24.126Z,4.35
2023-02-15T08:53:24.116Z,4.43
2023-02-15T08:54:24.122Z,4.41
2023-02-15T08:55:24.085Z,4.45
2023-02-15T08:56:24.079Z,4.59
2023-02-15T08:57:24.064Z,4.51
2023-02-15T08:58:24.051Z,4.54
2023-02-15T08:59:24.047Z,4.69
2023-02-15T09:00:24.029Z,4.69
2023-02-15T09:01:24.051Z,4.71
2023-02-15T09:02:24.040Z,4.64
2023-02-15T09:03:23.998Z,4.71
2023-02-15T09:04:23.983Z,4.74
2023-02-15T09:05:23.977Z,4.86
2023-02-15T09:06:23.965Z,4.85
2023-02-15T09:07:23.953Z,4.79
2023-02-15T09:08:23.972Z,4.82
2023-02-15T09:09:23.929Z,4.89
2023-02-15T09:10:23.920Z,4.83
2023-02-15T09:11:23.908Z,4.88
2023-02-15T09:12:23.892Z,4.78
2023-02-15T09:13:23.882Z,4.86
2023-02-15T09:14:23.871Z,4.91
2023-02-15T09:15:23.860Z,4.88
2023-02-15T09:16:23.882Z,4.89
2023-02-15T09:17:23.854Z,4.94
2023-02-15T09:18:23.828Z,5.01
2023-02-15T09:19:23.834Z,5.06
2023-02-15T09:20:23.808Z,5.14
2023-02-15T09:21:23.789Z,5.14
2023-02-15T09:22:23.784Z,5.15
2023-02-15T09:23:27.371Z,4.97
2023-02-15T09:24:23.866Z,5.09
2023-02-15T09:25:23.761Z,5.09
2023-02-15T09:26:23.748Z,5.07
2023-02-15T09:27:23.733Z,5.21
2023-02-15T09:28:23.720Z,5.19
2023-02-15T09:29:23.768Z,5.07
2023-02-15T09:30:23.825Z,5.18
2023-02-15T09:31:23.778Z,5.24
2023-02-15T09:32:23.674Z,5.40
2023-02-15T09:33:23.666Z,5.37
2023-02-15T09:34:23.655Z,5.52
2023-02-15T09:35:23.640Z,5.57
2023-02-15T09:36:23.633Z,5.50
2023-02-15T09:37:23.625Z,5.55
2023-02-15T09:38:23.614Z,5.55
2023-02-15T09:39:23.618Z,5.59
2023-02-15T09:40:23.600Z,5.69
2023-02-15T09:41:23.582Z,5.90
2023-02-15T09:42:23.568Z,5.90
2023-02-15T09:43:23.558Z,5.98
2023-02-15T09:44:23.552Z,5.97
2023-02-15T09:45:23.547Z,6.05
2023-02-15T09:46:23.567Z,5.95
2023-02-15T09:47:23.517Z,6.18
2023-02-15T09:48:23.508Z,6.13
2023-02-15T09:49:23.515Z,6.09
2023-02-15T09:50:23.546Z,6.16
2023-02-15T09:51:23.474Z,6.16
2023-02-15T09:52:23.469Z,6.12
2023-02-15T09:53:23.457Z,6.21
2023-02-15T09:54:23.459Z,6.16
2023-02-15T09:55:23.432Z,6.30
2023-02-15T09:56:23.426Z,6.43
2023-02-15T09:57:23.424Z,6.37
2023-02-15T09:58:23.409Z,6.46
2023-02-15T09:59:23.400Z,6.38
2023-02-15T10:00:23.465Z,6.52
2023-02-15T10:01:23.411Z,6.61
2023-02-15T10:02:23.388Z,6.65
2023-02-15T10:03:23.389Z,6.63
2023-02-15T10:04:23.401Z,6.85
2023-02-15T10:05:23.354Z,6.89
2023-02-15T10:06:23.336Z,7.08
2023-02-15T10:07:23.335Z,7.08
2023-02-15T10:08:23.324Z,7.39
2023-02-15T10:09:23.333Z,7.46
2023-02-15T10:10:23.339Z,7.76
2023-02-15T10:11:23.319Z,7.73
2023-02-15T10:12:23.282Z,7.95
2023-02-15T10:13:23.273Z,7.99
2023-02-15T10:14:23.286Z,8.26
2023-02-15T10:15:23.261Z,8.34
2023-02-15T10:16:23.257Z,8.60
2023-02-15T10:17:23.248Z,8.62
2023-02-15T10:18:23.246Z,8.42
2023-02-15T10:19:23.231Z,8.28
2023-02-15T10:20:23.224Z,8.29
2023-02-15T10:21:23.223Z,8.31
2023-02-15T10:22:23.234Z,8.53
2023-02-15T10:23:23.204Z,8.77
2023-02-15T10:24:23.198Z,8.49
2023-02-15T10:25:23.184Z,8.56
2023-02-15T10:26:23.186Z,8.71
2023-02-15T10:27:23.177Z,8.70
2023-02-15T10:28:23.188Z,9.09
2023-02-15T10:29:23.167Z,8.85
2023-02-15T10:30:23.285Z,8.77
2023-02-15T10:31:23.236Z,9.03
2023-02-15T10:32:23.177Z,9.14
2023-02-15T10:33:23.150Z,9.11
2023-02-15T10:34:23.148Z,9.34
2023-02-15T10:35:23.144Z,8.98
2023-02-15T10:36:23.131Z,9.24
2023-02-15T10:37:23.137Z,9.48
2023-02-15T10:38:23.122Z,9.67
2023-02-15T10:39:23.111Z,9.94
2023-02-15T10:40:23.117Z,9.81
2023-02-15T10:41:23.115Z,9.73
2023-02-15T10:42:23.113Z,9.80
2023-02-15T10:43:23.108Z,9.96
2023-02-15T10:44:23.100Z,10.16
2023-02-15T10:45:23.087Z,10.12
2023-02-15T10:46:23.126Z,10.18
2023-02-15T10:47:23.088Z,10.39
2023-02-15T10:48:23.086Z,10.52
2023-02-15T10:49:23.074Z,10.83
2023-02-15T10:50:23.077Z,11.13
2023-02-15T10:51:23.079Z,11.22
2023-02-15T10:52:24.378Z,11.23
2023-02-15T10:53:23.055Z,10.70
2023-02-15T10:54:23.068Z,10.87
2023-02-15T10:55:23.054Z,11.03
2023-02-15T10:56:23.057Z,10.70
2023-02-15T10:57:23.139Z,11.08
2023-02-15T10:58:23.042Z,11.28
2023-02-15T10:59:23.043Z,11.27
2023-02-15T11:00:23.039Z,11.05
2023-02-15T11:01:23.094Z,11.30
2023-02-15T11:02:23.032Z,11.30
2023-02-15T11:03:23.030Z,11.55
2023-02-15T11:04:23.038Z,11.28
2023-02-15T11:05:23.063Z,11.38
2023-02-15T11:06:23.030Z,11.11
2023-02-15T11:07:23.028Z,10.64
2023-02-15T11:08:23.015Z,11.00
2023-02-15T11:09:23.016Z,11.11
2023-02-15T11:10:23.005Z,11.27
2023-02-15T11:11:23.011Z,11.03
2023-02-15T11:12:23.006Z,10.98
2023-02-15T11:13:23.005Z,11.08
2023-02-15T11:14:23.003Z,11.23
2023-02-15T11:15:23.004Z,11.43
2023-02-15T11:16:23.043Z,10.93
2023-02-15T11:17:22.994Z,10.94
2023-02-15T11:18:22.987Z,10.67
2023-02-15T11:19:22.981Z,11.08
2023-02-15T11:20:22.995Z,11.52
2023-02-15T11:21:22.968Z,11.80
2023-02-15T11:22:22.968Z,11.87
2023-02-15T11:23:22.976Z,11.96
2023-02-15T11:24:22.965Z,11.77
2023-02-15T11:25:22.961Z,11.99
2023-02-15T11:26:22.971Z,11.48
2023-02-15T11:27:23.026Z,11.74
2023-02-15T11:28:22.967Z,11.99
2023-02-15T11:29:22.967Z,12.25
2023-02-15T11:30:23.013Z,12.72
2023-02-15T11:31:23.053Z,12.28
2023-02-15T11:32:22.942Z,11.87
2023-02-15T11:33:22.944Z,11.51
2023-02-15T11:34:22.946Z,11.76
2023-02-15T11:35:22.937Z,12.03
2023-02-15T11:36:22.925Z,12.47
2023-02-15T11:37:22.936Z,12.22
2023-02-15T11:38:22.928Z,12.14
2023-02-15T11:39:22.929Z,11.96
2023-02-15T11:40:22.929Z,11.66
2023-02-15T11:41:22.931Z,12.04
2023-02-15T11:42:22.918Z,12.17
2023-02-15T11:43:22.922Z,12.13
2023-02-15T11:44:22.905Z,12.54
2023-02-15T11:45:22.909Z,12.69
2023-02-15T11:46:22.966Z,12.40
2023-02-15T11:47:22.902Z,12.79
2023-02-15T11:48:22.905Z,13.01
2023-02-15T11:49:22.905Z,12.00
2023-02-15T11:50:22.906Z,12.43
2023-02-15T11:51:24.107Z,12.54
2023-02-15T11:52:22.888Z,12.93
2023-02-15T11:53:22.889Z,12.84
2023-02-15T11:54:22.885Z,13.09
2023-02-15T11:55:22.888Z,13.46
2023-02-15T11:56:22.890Z,13.42
2023-02-15T11:57:23.230Z,13.58
2023-02-15T11:58:22.882Z,12.88
2023-02-15T11:59:22.876Z,12.68
2023-02-15T12:00:22.882Z,12.83
2023-02-15T12:01:22.871Z,12.73
2023-02-15T12:02:22.979Z,12.68
2023-02-15T12:03:23.590Z,13.01
2023-02-15T12:04:22.985Z,13.43
2023-02-15T12:05:22.857Z,12.90
2023-02-15T12:06:22.876Z,12.84
2023-02-15T12:07:22.869Z,12.73
2023-02-15T12:08:22.869Z,12.86
2023-02-15T12:09:23.746Z,12.04
2023-02-15T12:10:22.857Z,12.13
2023-02-15T12:11:22.857Z,12.36
2023-02-15T12:12:22.848Z,11.96
2023-02-15T12:13:22.849Z,12.41
2023-02-15T12:14:22.843Z,12.47
2023-02-15T12:15:22.854Z,12.91
2023-02-15T12:16:22.838Z,13.39
2023-02-15T12:17:22.840Z,12.84
2023-02-15T12:18:22.844Z,12.93
2023-02-15T12:19:22.844Z,12.83
2023-02-15T12:20:22.826Z,12.91
2023-02-15T12:21:22.825Z,11.99
2023-02-15T12:22:22.833Z,11.64
2023-02-15T12:23:22.826Z,11.77
2023-02-15T12:24:22.822Z,12.11
2023-02-15T12:25:22.823Z,12.40
2023-02-15T12:26:22.817Z,12.73
2023-02-15T12:27:22.822Z,12.80
2023-02-15T12:28:22.811Z,12.48
2023-02-15T12:29:22.815Z,12.65
2023-02-15T12:30:22.863Z,12.40
2023-02-15T12:31:22.845Z,12.46
2023-02-15T12:32:22.836Z,12.38
2023-02-15T12:33:22.812Z,12.44
2023-02-15T12:34:22.791Z,12.47
2023-02-15T12:35:22.788Z,12.62
2023-02-15T12:36:22.791Z,12.87
2023-02-15T12:37:22.789Z,13.27
2023-02-15T12:38:22.788Z,13.36
2023-02-15T12:39:22.791Z,13.09
2023-02-15T12:40:22.774Z,12.99
2023-02-15T12:41:22.786Z,13.29
2023-02-15T12:42:22.774Z,13.68
2023-02-15T12:43:22.762Z,13.14
2023-02-15T12:44:22.768Z,13.51
2023-02-15T12:45:22.769Z,13.73
2023-02-15T12:46:22.810Z,13.54
2023-02-15T12:48:22.743Z,13.04
2023-02-15T12:49:22.749Z,12.69
2023-02-15T12:50:22.739Z,12.63
2023-02-15T12:51:22.732Z,12.76
2023-02-15T12:52:22.733Z,12.77
2023-02-15T12:53:22.735Z,12.80
2023-02-15T12:54:23.926Z,12.23
2023-02-15T12:55:22.737Z,11.99
2023-02-15T12:56:23.997Z,11.84
2023-02-15T12:57:22.710Z,12.04
2023-02-15T12:58:22.702Z,12.23
2023-02-15T12:59:23.694Z,12.40
2023-02-15T13:00:22.697Z,12.61
2023-02-15T13:01:22.825Z,12.53
2023-02-15T13:02:22.731Z,12.55
2023-02-15T13:03:22.723Z,12.61
2023-02-15T13:04:22.686Z,12.54
2023-02-15T13:05:22.678Z,12.44
2023-02-15T13:06:22.706Z,12.36
2023-02-15T13:07:22.679Z,12.46
2023-02-15T13:08:22.668Z,12.43
2023-02-15T13:09:22.672Z,12.13
2023-02-15T13:10:22.662Z,12.17
2023-02-15T13:11:22.648Z,11.97
2023-02-15T13:12:22.691Z,12.14
2023-02-15T13:13:22.645Z,12.33
2023-02-15T13:14:22.646Z,12.29